sensor_id;sensor_type;location;lat;lon;timestamp;P1;durP1;ratioP1;P2;durP2;ratioP2
4758;SDS011;2393;50.560;12.636;2023-07-02T00:02:16;0.70;;;0.70;;
4758;SDS011;2393;50.560;12.636;2023-07-02T00:04:46;0.90;;;0.70;;
4758;SDS011;2393;50.560;12.636;2023-07-02T00:07:34;1.43;;;0.80;;
4758;SDS011;2393;50.560;12.636;2023-07-02T00:10:05;0.70;;;0.67;;
4758;SDS011;2393;50.560;12.636;2023-07-02T00:12:37;1.13;;;0.60;;
4758;SDS011;2393;50.560;12.636;2023-07-02T00:15:10;0.70;;;0.70;;
4758;SDS011;2393;50.560;12.636;2023-07-02T00:17:45;1.00;;;1.00;;
4758;SDS011;2393;50.560;12.636;2023-07-02T00:20:13;0.60;;;0.60;;
4758;SDS011;2393;50.560;12.636;2023-07-02T00:22:46;0.70;;;0.70;;
4758;SDS011;2393;50.560;12.636;2023-07-02T00:25:31;0.60;;;0.53;;
4758;SDS011;2393;50.560;12.636;2023-07-02T00:27:59;6.13;;;0.53;;
4758;SDS011;2393;50.560;12.636;2023-07-02T00:30:59;0.80;;;0.80;;
4758;SDS011;2393;50.560;12.636;2023-07-02T00:33:46;1.10;;;0.97;;
4758;SDS011;2393;50.560;12.636;2023-07-02T00:36:14;0.73;;;0.73;;
4758;SDS011;2393;50.560;12.636;2023-07-02T00:38:44;0.60;;;0.60;;
4758;SDS011;2393;50.560;12.636;2023-07-02T00:41:13;1.23;;;0.70;;
4758;SDS011;2393;50.560;12.636;2023-07-02T00:43:41;0.60;;;0.60;;
4758;SDS011;2393;50.560;12.636;2023-07-02T00:46:16;1.70;;;0.50;;
4758;SDS011;2393;50.560;12.636;2023-07-02T00:48:53;0.50;;;0.50;;
4758;SDS011;2393;50.560;12.636;2023-07-02T00:51:31;0.90;;;0.90;;
4758;SDS011;2393;50.560;12.636;2023-07-02T00:54:00;1.07;;;0.70;;
4758;SDS011;2393;50.560;12.636;2023-07-02T00:56:28;0.93;;;0.93;;
4758;SDS011;2393;50.560;12.636;2023-07-02T00:58:57;0.50;;;0.50;;
4758;SDS011;2393;50.560;12.636;2023-07-02T01:01:26;0.40;;;0.37;;
4758;SDS011;2393;50.560;12.636;2023-07-02T01:03:58;0.70;;;0.63;;
4758;SDS011;2393;50.560;12.636;2023-07-02T01:06:27;2.00;;;0.53;;
4758;SDS011;2393;50.560;12.636;2023-07-02T01:08:58;0.67;;;0.67;;
4758;SDS011;2393;50.560;12.636;2023-07-02T01:11:27;0.70;;;0.70;;
4758;SDS011;2393;50.560;12.636;2023-07-02T01:13:59;0.50;;;0.50;;
4758;SDS011;2393;50.560;12.636;2023-07-02T01:16:32;0.60;;;0.60;;
4758;SDS011;2393;50.560;12.636;2023-07-02T01:19:18;0.70;;;0.70;;
4758;SDS011;2393;50.560;12.636;2023-07-02T01:21:53;0.93;;;0.63;;
4758;SDS011;2393;50.560;12.636;2023-07-02T01:27:22;0.70;;;0.70;;
4758;SDS011;2393;50.560;12.636;2023-07-02T01:30:35;0.63;;;0.63;;
4758;SDS011;2393;50.560;12.636;2023-07-02T01:33:27;1.10;;;0.63;;
4758;SDS011;2393;50.560;12.636;2023-07-02T01:40:03;0.90;;;0.90;;
4758;SDS011;2393;50.560;12.636;2023-07-02T01:42:33;0.70;;;0.70;;
4758;SDS011;2393;50.560;12.636;2023-07-02T01:45:02;0.77;;;0.77;;
4758;SDS011;2393;50.560;12.636;2023-07-02T01:47:30;1.40;;;1.27;;
4758;SDS011;2393;50.560;12.636;2023-07-02T01:50:12;1.10;;;1.00;;
4758;SDS011;2393;50.560;12.636;2023-07-02T01:52:48;1.10;;;1.10;;
4758;SDS011;2393;50.560;12.636;2023-07-02T01:55:28;1.23;;;0.97;;
4758;SDS011;2393;50.560;12.636;2023-07-02T02:01:10;0.70;;;0.70;;
4758;SDS011;2393;50.560;12.636;2023-07-02T02:04:10;0.80;;;0.80;;
4758;SDS011;2393;50.560;12.636;2023-07-02T02:07:06;0.80;;;0.80;;
4758;SDS011;2393;50.560;12.636;2023-07-02T02:09:59;1.37;;;1.20;;
4758;SDS011;2393;50.560;12.636;2023-07-02T02:12:39;1.33;;;1.23;;
4758;SDS011;2393;50.560;12.636;2023-07-02T02:15:13;0.77;;;0.77;;
4758;SDS011;2393;50.560;12.636;2023-07-02T02:17:43;1.57;;;1.27;;
4758;SDS011;2393;50.560;12.636;2023-07-02T02:20:23;0.90;;;0.90;;
4758;SDS011;2393;50.560;12.636;2023-07-02T02:22:52;1.00;;;1.00;;
4758;SDS011;2393;50.560;12.636;2023-07-02T02:26:24;0.70;;;0.70;;
4758;SDS011;2393;50.560;12.636;2023-07-02T02:28:24;0.50;;;0.50;;
4758;SDS011;2393;50.560;12.636;2023-07-02T02:30:53;1.50;;;1.50;;
4758;SDS011;2393;50.560;12.636;2023-07-02T02:34:03;1.37;;;1.27;;
4758;SDS011;2393;50.560;12.636;2023-07-02T02:36:40;4.73;;;1.10;;
4758;SDS011;2393;50.560;12.636;2023-07-02T02:39:10;1.47;;;1.20;;
4758;SDS011;2393;50.560;12.636;2023-07-02T02:41:38;1.37;;;1.27;;
4758;SDS011;2393;50.560;12.636;2023-07-02T02:44:14;2.30;;;1.70;;
4758;SDS011;2393;50.560;12.636;2023-07-02T02:46:47;2.30;;;1.20;;
4758;SDS011;2393;50.560;12.636;2023-07-02T02:49:15;1.67;;;1.57;;
4758;SDS011;2393;50.560;12.636;2023-07-02T02:51:43;1.10;;;1.10;;
4758;SDS011;2393;50.560;12.636;2023-07-02T02:54:11;1.70;;;1.60;;
4758;SDS011;2393;50.560;12.636;2023-07-02T02:56:39;1.67;;;1.57;;
4758;SDS011;2393;50.560;12.636;2023-07-02T02:59:07;2.17;;;1.97;;
4758;SDS011;2393;50.560;12.636;2023-07-02T03:01:36;1.50;;;1.50;;
4758;SDS011;2393;50.560;12.636;2023-07-02T03:04:05;1.67;;;1.57;;
4758;SDS011;2393;50.560;12.636;2023-07-02T03:06:35;1.80;;;1.70;;
4758;SDS011;2393;50.560;12.636;2023-07-02T03:09:03;2.03;;;1.80;;
4758;SDS011;2393;50.560;12.636;2023-07-02T03:11:31;1.43;;;1.43;;
4758;SDS011;2393;50.560;12.636;2023-07-02T03:14:00;2.10;;;2.00;;
4758;SDS011;2393;50.560;12.636;2023-07-02T03:16:28;2.17;;;1.60;;
4758;SDS011;2393;50.560;12.636;2023-07-02T03:18:57;1.60;;;1.50;;
4758;SDS011;2393;50.560;12.636;2023-07-02T03:21:25;4.67;;;2.00;;
4758;SDS011;2393;50.560;12.636;2023-07-02T03:23:56;3.83;;;1.80;;
4758;SDS011;2393;50.560;12.636;2023-07-02T03:26:24;1.60;;;1.50;;
4758;SDS011;2393;50.560;12.636;2023-07-02T03:28:52;4.23;;;1.87;;
4758;SDS011;2393;50.560;12.636;2023-07-02T03:31:20;1.97;;;1.87;;
4758;SDS011;2393;50.560;12.636;2023-07-02T03:33:48;1.77;;;1.70;;
4758;SDS011;2393;50.560;12.636;2023-07-02T03:36:18;2.43;;;2.13;;
4758;SDS011;2393;50.560;12.636;2023-07-02T03:38:46;6.60;;;2.03;;
4758;SDS011;2393;50.560;12.636;2023-07-02T03:41:14;7.80;;;2.07;;
4758;SDS011;2393;50.560;12.636;2023-07-02T03:43:42;2.33;;;2.13;;
4758;SDS011;2393;50.560;12.636;2023-07-02T03:46:10;4.07;;;2.00;;
4758;SDS011;2393;50.560;12.636;2023-07-02T03:48:42;2.23;;;2.10;;
4758;SDS011;2393;50.560;12.636;2023-07-02T03:51:14;2.93;;;2.40;;
4758;SDS011;2393;50.560;12.636;2023-07-02T03:53:43;1.87;;;1.77;;
4758;SDS011;2393;50.560;12.636;2023-07-02T03:56:11;1.63;;;1.53;;
4758;SDS011;2393;50.560;12.636;2023-07-02T03:58:40;1.73;;;1.63;;
4758;SDS011;2393;50.560;12.636;2023-07-02T04:01:08;2.20;;;2.00;;
4758;SDS011;2393;50.560;12.636;2023-07-02T04:03:36;2.43;;;2.23;;
4758;SDS011;2393;50.560;12.636;2023-07-02T04:06:04;1.77;;;1.67;;
4758;SDS011;2393;50.560;12.636;2023-07-02T04:08:33;1.63;;;1.53;;
4758;SDS011;2393;50.560;12.636;2023-07-02T04:11:02;1.63;;;1.57;;
4758;SDS011;2393;50.560;12.636;2023-07-02T04:13:30;3.20;;;1.93;;
4758;SDS011;2393;50.560;12.636;2023-07-02T04:15:58;2.57;;;2.37;;
4758;SDS011;2393;50.560;12.636;2023-07-02T04:18:27;4.20;;;1.80;;
4758;SDS011;2393;50.560;12.636;2023-07-02T04:20:56;1.73;;;1.63;;
4758;SDS011;2393;50.560;12.636;2023-07-02T04:23:24;1.80;;;1.70;;
4758;SDS011;2393;50.560;12.636;2023-07-02T04:25:53;6.50;;;2.10;;
4758;SDS011;2393;50.560;12.636;2023-07-02T04:28:42;1.77;;;1.67;;
4758;SDS011;2393;50.560;12.636;2023-07-02T04:31:11;1.57;;;1.57;;
4758;SDS011;2393;50.560;12.636;2023-07-02T04:33:53;1.90;;;1.40;;
4758;SDS011;2393;50.560;12.636;2023-07-02T04:36:21;2.30;;;2.10;;
4758;SDS011;2393;50.560;12.636;2023-07-02T04:38:49;2.23;;;2.13;;
4758;SDS011;2393;50.560;12.636;2023-07-02T04:41:18;1.23;;;1.23;;
4758;SDS011;2393;50.560;12.636;2023-07-02T04:43:48;3.00;;;2.07;;
4758;SDS011;2393;50.560;12.636;2023-07-02T04:51:14;2.50;;;1.80;;
4758;SDS011;2393;50.560;12.636;2023-07-02T04:53:42;1.73;;;1.73;;
4758;SDS011;2393;50.560;12.636;2023-07-02T04:56:10;4.00;;;1.80;;
4758;SDS011;2393;50.560;12.636;2023-07-02T04:58:47;3.03;;;1.90;;
4758;SDS011;2393;50.560;12.636;2023-07-02T05:01:15;1.67;;;1.57;;
4758;SDS011;2393;50.560;12.636;2023-07-02T05:03:44;3.30;;;2.03;;
4758;SDS011;2393;50.560;12.636;2023-07-02T05:06:12;2.20;;;2.00;;
4758;SDS011;2393;50.560;12.636;2023-07-02T05:11:47;1.87;;;1.77;;
4758;SDS011;2393;50.560;12.636;2023-07-02T05:14:23;2.10;;;2.00;;
4758;SDS011;2393;50.560;12.636;2023-07-02T05:19:45;2.07;;;2.03;;
4758;SDS011;2393;50.560;12.636;2023-07-02T05:29:42;3.30;;;3.00;;
4758;SDS011;2393;50.560;12.636;2023-07-02T05:32:10;2.97;;;2.77;;
4758;SDS011;2393;50.560;12.636;2023-07-02T05:34:38;2.97;;;2.77;;
4758;SDS011;2393;50.560;12.636;2023-07-02T05:37:06;2.70;;;2.50;;
4758;SDS011;2393;50.560;12.636;2023-07-02T05:39:34;2.33;;;2.20;;
4758;SDS011;2393;50.560;12.636;2023-07-02T05:42:03;3.30;;;2.93;;
4758;SDS011;2393;50.560;12.636;2023-07-02T05:47:26;2.20;;;2.10;;
4758;SDS011;2393;50.560;12.636;2023-07-02T05:49:56;2.87;;;2.70;;
4758;SDS011;2393;50.560;12.636;2023-07-02T05:52:27;3.10;;;2.90;;
4758;SDS011;2393;50.560;12.636;2023-07-02T05:54:55;3.27;;;3.07;;
4758;SDS011;2393;50.560;12.636;2023-07-02T05:57:23;2.50;;;2.40;;
4758;SDS011;2393;50.560;12.636;2023-07-02T05:59:51;12.37;;;3.03;;
4758;SDS011;2393;50.560;12.636;2023-07-02T06:02:24;2.93;;;2.73;;
4758;SDS011;2393;50.560;12.636;2023-07-02T06:05:00;4.20;;;2.43;;
4758;SDS011;2393;50.560;12.636;2023-07-02T06:07:29;3.63;;;2.60;;
4758;SDS011;2393;50.560;12.636;2023-07-02T06:09:58;2.90;;;2.70;;
4758;SDS011;2393;50.560;12.636;2023-07-02T06:12:37;2.40;;;2.30;;
4758;SDS011;2393;50.560;12.636;2023-07-02T06:15:09;2.87;;;2.73;;
4758;SDS011;2393;50.560;12.636;2023-07-02T06:17:42;2.83;;;2.03;;
4758;SDS011;2393;50.560;12.636;2023-07-02T06:20:11;3.50;;;3.20;;
4758;SDS011;2393;50.560;12.636;2023-07-02T06:22:42;2.33;;;2.23;;
4758;SDS011;2393;50.560;12.636;2023-07-02T06:25:11;2.30;;;2.20;;
4758;SDS011;2393;50.560;12.636;2023-07-02T06:27:39;2.30;;;2.20;;
4758;SDS011;2393;50.560;12.636;2023-07-02T06:30:08;2.10;;;2.00;;
4758;SDS011;2393;50.560;12.636;2023-07-02T06:33:00;2.40;;;2.20;;
4758;SDS011;2393;50.560;12.636;2023-07-02T06:35:28;2.50;;;2.40;;
4758;SDS011;2393;50.560;12.636;2023-07-02T06:37:56;5.70;;;2.27;;
4758;SDS011;2393;50.560;12.636;2023-07-02T06:40:36;1.70;;;1.60;;
4758;SDS011;2393;50.560;12.636;2023-07-02T06:43:05;1.87;;;1.77;;
4758;SDS011;2393;50.560;12.636;2023-07-02T06:45:34;2.10;;;1.87;;
4758;SDS011;2393;50.560;12.636;2023-07-02T06:48:07;2.10;;;2.00;;
4758;SDS011;2393;50.560;12.636;2023-07-02T06:50:35;2.93;;;2.50;;
4758;SDS011;2393;50.560;12.636;2023-07-02T06:53:03;2.43;;;2.17;;
4758;SDS011;2393;50.560;12.636;2023-07-02T06:55:33;1.60;;;1.60;;
4758;SDS011;2393;50.560;12.636;2023-07-02T06:58:01;7.83;;;1.97;;
4758;SDS011;2393;50.560;12.636;2023-07-02T07:00:30;1.50;;;1.50;;
4758;SDS011;2393;50.560;12.636;2023-07-02T07:02:59;2.40;;;1.80;;
4758;SDS011;2393;50.560;12.636;2023-07-02T07:05:28;2.03;;;1.93;;
4758;SDS011;2393;50.560;12.636;2023-07-02T07:07:57;1.97;;;1.87;;
4758;SDS011;2393;50.560;12.636;2023-07-02T07:10:25;1.90;;;1.83;;
4758;SDS011;2393;50.560;12.636;2023-07-02T07:12:53;1.97;;;1.80;;
4758;SDS011;2393;50.560;12.636;2023-07-02T07:15:21;2.50;;;2.00;;
4758;SDS011;2393;50.560;12.636;2023-07-02T07:17:50;1.70;;;1.60;;
4758;SDS011;2393;50.560;12.636;2023-07-02T07:20:18;1.70;;;1.60;;
4758;SDS011;2393;50.560;12.636;2023-07-02T07:22:52;2.60;;;1.60;;
4758;SDS011;2393;50.560;12.636;2023-07-02T07:25:20;1.97;;;1.70;;
4758;SDS011;2393;50.560;12.636;2023-07-02T07:27:48;1.73;;;1.73;;
4758;SDS011;2393;50.560;12.636;2023-07-02T07:30:16;1.90;;;1.80;;
4758;SDS011;2393;50.560;12.636;2023-07-02T07:32:49;1.83;;;1.83;;
4758;SDS011;2393;50.560;12.636;2023-07-02T07:35:18;4.20;;;2.50;;
4758;SDS011;2393;50.560;12.636;2023-07-02T07:37:48;6.53;;;2.03;;
4758;SDS011;2393;50.560;12.636;2023-07-02T07:40:18;2.50;;;2.30;;
4758;SDS011;2393;50.560;12.636;2023-07-02T07:42:47;2.60;;;1.80;;
4758;SDS011;2393;50.560;12.636;2023-07-02T07:45:15;1.60;;;1.50;;
4758;SDS011;2393;50.560;12.636;2023-07-02T07:47:44;3.20;;;1.63;;
4758;SDS011;2393;50.560;12.636;2023-07-02T07:50:12;2.47;;;1.30;;
4758;SDS011;2393;50.560;12.636;2023-07-02T07:52:40;2.30;;;2.10;;
4758;SDS011;2393;50.560;12.636;2023-07-02T07:55:09;3.03;;;1.43;;
4758;SDS011;2393;50.560;12.636;2023-07-02T07:57:39;1.60;;;1.50;;
4758;SDS011;2393;50.560;12.636;2023-07-02T08:00:07;1.87;;;1.77;;
4758;SDS011;2393;50.560;12.636;2023-07-02T08:02:44;2.30;;;2.10;;
4758;SDS011;2393;50.560;12.636;2023-07-02T08:05:13;4.07;;;1.97;;
4758;SDS011;2393;50.560;12.636;2023-07-02T08:07:41;1.70;;;1.60;;
4758;SDS011;2393;50.560;12.636;2023-07-02T08:10:09;3.17;;;1.90;;
4758;SDS011;2393;50.560;12.636;2023-07-02T08:12:39;1.83;;;1.63;;
4758;SDS011;2393;50.560;12.636;2023-07-02T08:15:07;2.10;;;2.00;;
4758;SDS011;2393;50.560;12.636;2023-07-02T08:17:35;1.60;;;1.60;;
4758;SDS011;2393;50.560;12.636;2023-07-02T08:20:07;1.63;;;1.53;;
4758;SDS011;2393;50.560;12.636;2023-07-02T08:22:37;1.87;;;1.77;;
4758;SDS011;2393;50.560;12.636;2023-07-02T08:25:05;1.23;;;1.23;;
4758;SDS011;2393;50.560;12.636;2023-07-02T08:27:34;1.93;;;1.30;;
4758;SDS011;2393;50.560;12.636;2023-07-02T08:30:04;1.53;;;1.43;;
4758;SDS011;2393;50.560;12.636;2023-07-02T08:32:33;1.10;;;1.10;;
4758;SDS011;2393;50.560;12.636;2023-07-02T08:35:01;3.30;;;1.10;;
4758;SDS011;2393;50.560;12.636;2023-07-02T08:37:29;1.70;;;1.20;;
4758;SDS011;2393;50.560;12.636;2023-07-02T08:39:57;1.60;;;1.50;;
4758;SDS011;2393;50.560;12.636;2023-07-02T08:42:25;1.00;;;1.00;;
4758;SDS011;2393;50.560;12.636;2023-07-02T08:44:56;1.20;;;1.20;;
4758;SDS011;2393;50.560;12.636;2023-07-02T08:47:27;2.03;;;1.80;;
4758;SDS011;2393;50.560;12.636;2023-07-02T08:49:55;2.00;;;1.17;;
4758;SDS011;2393;50.560;12.636;2023-07-02T08:52:23;1.67;;;1.57;;
4758;SDS011;2393;50.560;12.636;2023-07-02T08:54:55;1.50;;;1.43;;
4758;SDS011;2393;50.560;12.636;2023-07-02T08:57:23;1.93;;;1.83;;
4758;SDS011;2393;50.560;12.636;2023-07-02T08:59:51;1.30;;;1.20;;
4758;SDS011;2393;50.560;12.636;2023-07-02T09:02:31;1.53;;;1.27;;
4758;SDS011;2393;50.560;12.636;2023-07-02T09:04:59;2.03;;;1.83;;
4758;SDS011;2393;50.560;12.636;2023-07-02T09:07:27;1.60;;;1.50;;
4758;SDS011;2393;50.560;12.636;2023-07-02T09:09:55;1.10;;;1.10;;
4758;SDS011;2393;50.560;12.636;2023-07-02T09:12:24;1.20;;;1.20;;
4758;SDS011;2393;50.560;12.636;2023-07-02T09:14:56;1.13;;;1.13;;
4758;SDS011;2393;50.560;12.636;2023-07-02T09:17:28;1.67;;;1.43;;
4758;SDS011;2393;50.560;12.636;2023-07-02T09:19:59;1.37;;;1.00;;
4758;SDS011;2393;50.560;12.636;2023-07-02T09:22:29;1.43;;;1.40;;
4758;SDS011;2393;50.560;12.636;2023-07-02T09:24:57;1.30;;;1.20;;
4758;SDS011;2393;50.560;12.636;2023-07-02T09:27:33;1.63;;;1.53;;
4758;SDS011;2393;50.560;12.636;2023-07-02T09:30:06;3.90;;;1.20;;
4758;SDS011;2393;50.560;12.636;2023-07-02T09:32:37;3.70;;;0.90;;
4758;SDS011;2393;50.560;12.636;2023-07-02T09:35:06;1.50;;;1.33;;
4758;SDS011;2393;50.560;12.636;2023-07-02T09:37:34;1.50;;;1.40;;
4758;SDS011;2393;50.560;12.636;2023-07-02T09:40:03;1.63;;;1.00;;
4758;SDS011;2393;50.560;12.636;2023-07-02T09:42:34;3.40;;;1.53;;
4758;SDS011;2393;50.560;12.636;2023-07-02T09:45:05;4.40;;;1.63;;
4758;SDS011;2393;50.560;12.636;2023-07-02T09:47:39;3.60;;;1.23;;
4758;SDS011;2393;50.560;12.636;2023-07-02T09:50:12;1.67;;;1.57;;
4758;SDS011;2393;50.560;12.636;2023-07-02T09:52:41;1.17;;;1.17;;
4758;SDS011;2393;50.560;12.636;2023-07-02T09:55:11;1.60;;;1.50;;
4758;SDS011;2393;50.560;12.636;2023-07-02T09:57:39;1.13;;;1.13;;
4758;SDS011;2393;50.560;12.636;2023-07-02T10:00:10;1.10;;;1.10;;
4758;SDS011;2393;50.560;12.636;2023-07-02T10:02:41;1.30;;;1.30;;
4758;SDS011;2393;50.560;12.636;2023-07-02T10:05:24;1.47;;;1.37;;
4758;SDS011;2393;50.560;12.636;2023-07-02T10:07:53;1.67;;;1.00;;
4758;SDS011;2393;50.560;12.636;2023-07-02T10:10:26;3.03;;;1.57;;
4758;SDS011;2393;50.560;12.636;2023-07-02T10:12:55;2.80;;;1.80;;
4758;SDS011;2393;50.560;12.636;2023-07-02T10:15:24;5.23;;;1.50;;
4758;SDS011;2393;50.560;12.636;2023-07-02T10:17:58;1.57;;;1.47;;
4758;SDS011;2393;50.560;12.636;2023-07-02T10:20:33;1.57;;;1.47;;
4758;SDS011;2393;50.560;12.636;2023-07-02T10:23:04;1.20;;;1.10;;
4758;SDS011;2393;50.560;12.636;2023-07-02T10:25:33;1.23;;;1.17;;
4758;SDS011;2393;50.560;12.636;2023-07-02T10:28:13;2.50;;;1.20;;
4758;SDS011;2393;50.560;12.636;2023-07-02T10:30:42;2.97;;;1.17;;
4758;SDS011;2393;50.560;12.636;2023-07-02T10:33:12;2.40;;;1.10;;
4758;SDS011;2393;50.560;12.636;2023-07-02T10:35:41;1.83;;;1.73;;
4758;SDS011;2393;50.560;12.636;2023-07-02T10:38:13;5.40;;;1.40;;
4758;SDS011;2393;50.560;12.636;2023-07-02T10:40:42;1.40;;;1.30;;
4758;SDS011;2393;50.560;12.636;2023-07-02T10:43:11;5.50;;;2.00;;
4758;SDS011;2393;50.560;12.636;2023-07-02T10:45:39;2.80;;;1.60;;
4758;SDS011;2393;50.560;12.636;2023-07-02T10:48:08;1.50;;;1.40;;
4758;SDS011;2393;50.560;12.636;2023-07-02T10:50:39;5.43;;;1.97;;
4758;SDS011;2393;50.560;12.636;2023-07-02T10:53:14;4.53;;;2.13;;
4758;SDS011;2393;50.560;12.636;2023-07-02T10:55:42;3.50;;;1.30;;
4758;SDS011;2393;50.560;12.636;2023-07-02T10:58:11;1.27;;;1.17;;
4758;SDS011;2393;50.560;12.636;2023-07-02T11:00:44;1.97;;;1.17;;
4758;SDS011;2393;50.560;12.636;2023-07-02T11:03:16;1.40;;;1.30;;
4758;SDS011;2393;50.560;12.636;2023-07-02T11:05:47;1.27;;;1.17;;
4758;SDS011;2393;50.560;12.636;2023-07-02T11:08:16;1.30;;;1.20;;
4758;SDS011;2393;50.560;12.636;2023-07-02T11:10:46;2.20;;;1.60;;
4758;SDS011;2393;50.560;12.636;2023-07-02T11:13:14;3.50;;;1.60;;
4758;SDS011;2393;50.560;12.636;2023-07-02T11:15:43;1.83;;;1.70;;
4758;SDS011;2393;50.560;12.636;2023-07-02T11:18:14;1.40;;;1.17;;
4758;SDS011;2393;50.560;12.636;2023-07-02T11:20:43;2.93;;;1.67;;
4758;SDS011;2393;50.560;12.636;2023-07-02T11:23:20;1.50;;;1.40;;
4758;SDS011;2393;50.560;12.636;2023-07-02T11:25:55;2.07;;;1.47;;
4758;SDS011;2393;50.560;12.636;2023-07-02T11:28:25;2.10;;;1.60;;
4758;SDS011;2393;50.560;12.636;2023-07-02T11:30:54;1.43;;;1.33;;
4758;SDS011;2393;50.560;12.636;2023-07-02T11:33:32;1.23;;;1.13;;
4758;SDS011;2393;50.560;12.636;2023-07-02T11:36:01;1.73;;;1.60;;
4758;SDS011;2393;50.560;12.636;2023-07-02T11:38:30;1.53;;;1.43;;
4758;SDS011;2393;50.560;12.636;2023-07-02T11:40:58;1.57;;;1.47;;
4758;SDS011;2393;50.560;12.636;2023-07-02T11:43:26;1.57;;;0.93;;
4758;SDS011;2393;50.560;12.636;2023-07-02T11:45:54;1.90;;;1.80;;
4758;SDS011;2393;50.560;12.636;2023-07-02T11:48:22;2.10;;;1.07;;
4758;SDS011;2393;50.560;12.636;2023-07-02T11:50:50;1.17;;;1.07;;
4758;SDS011;2393;50.560;12.636;2023-07-02T11:53:18;3.43;;;1.10;;
4758;SDS011;2393;50.560;12.636;2023-07-02T11:55:48;1.13;;;1.13;;
4758;SDS011;2393;50.560;12.636;2023-07-02T11:58:17;1.60;;;1.13;;
4758;SDS011;2393;50.560;12.636;2023-07-02T12:00:45;7.80;;;1.50;;
4758;SDS011;2393;50.560;12.636;2023-07-02T12:03:13;2.30;;;1.73;;
4758;SDS011;2393;50.560;12.636;2023-07-02T12:05:41;1.40;;;1.30;;
4758;SDS011;2393;50.560;12.636;2023-07-02T12:08:09;1.17;;;1.03;;
4758;SDS011;2393;50.560;12.636;2023-07-02T12:10:37;3.00;;;1.43;;
4758;SDS011;2393;50.560;12.636;2023-07-02T12:13:06;3.10;;;1.23;;
4758;SDS011;2393;50.560;12.636;2023-07-02T12:15:34;4.77;;;1.87;;
4758;SDS011;2393;50.560;12.636;2023-07-02T12:18:03;2.50;;;2.30;;
4758;SDS011;2393;50.560;12.636;2023-07-02T12:20:31;1.43;;;1.00;;
4758;SDS011;2393;50.560;12.636;2023-07-02T12:22:59;2.80;;;0.97;;
4758;SDS011;2393;50.560;12.636;2023-07-02T12:25:27;2.83;;;1.03;;
4758;SDS011;2393;50.560;12.636;2023-07-02T12:27:55;0.90;;;0.90;;
4758;SDS011;2393;50.560;12.636;2023-07-02T12:30:24;1.13;;;1.03;;
4758;SDS011;2393;50.560;12.636;2023-07-02T12:32:52;6.53;;;1.47;;
4758;SDS011;2393;50.560;12.636;2023-07-02T12:35:21;2.03;;;1.27;;
4758;SDS011;2393;50.560;12.636;2023-07-02T12:37:50;1.67;;;1.57;;
4758;SDS011;2393;50.560;12.636;2023-07-02T12:40:20;1.47;;;1.37;;
4758;SDS011;2393;50.560;12.636;2023-07-02T12:42:48;2.73;;;1.40;;
4758;SDS011;2393;50.560;12.636;2023-07-02T12:45:17;1.60;;;1.50;;
4758;SDS011;2393;50.560;12.636;2023-07-02T12:47:48;4.67;;;1.60;;
4758;SDS011;2393;50.560;12.636;2023-07-02T12:50:16;3.13;;;1.60;;
4758;SDS011;2393;50.560;12.636;2023-07-02T12:52:46;1.80;;;1.70;;
4758;SDS011;2393;50.560;12.636;2023-07-02T12:55:14;2.10;;;1.53;;
4758;SDS011;2393;50.560;12.636;2023-07-02T12:57:42;2.90;;;1.77;;
4758;SDS011;2393;50.560;12.636;2023-07-02T13:00:10;3.60;;;1.40;;
4758;SDS011;2393;50.560;12.636;2023-07-02T13:02:39;1.33;;;1.17;;
4758;SDS011;2393;50.560;12.636;2023-07-02T13:05:28;2.67;;;1.93;;
4758;SDS011;2393;50.560;12.636;2023-07-02T13:07:56;2.07;;;1.60;;
4758;SDS011;2393;50.560;12.636;2023-07-02T13:10:24;2.60;;;1.43;;
4758;SDS011;2393;50.560;12.636;2023-07-02T13:12:53;2.03;;;1.50;;
4758;SDS011;2393;50.560;12.636;2023-07-02T13:15:28;1.87;;;1.73;;
4758;SDS011;2393;50.560;12.636;2023-07-02T13:17:57;1.50;;;1.40;;
4758;SDS011;2393;50.560;12.636;2023-07-02T13:20:25;6.27;;;2.03;;
4758;SDS011;2393;50.560;12.636;2023-07-02T13:22:54;4.43;;;1.30;;
4758;SDS011;2393;50.560;12.636;2023-07-02T13:25:22;3.00;;;2.07;;
4758;SDS011;2393;50.560;12.636;2023-07-02T13:27:50;4.30;;;1.00;;
4758;SDS011;2393;50.560;12.636;2023-07-02T13:30:18;2.80;;;1.70;;
4758;SDS011;2393;50.560;12.636;2023-07-02T13:32:46;3.03;;;1.30;;
4758;SDS011;2393;50.560;12.636;2023-07-02T13:35:15;2.20;;;1.57;;
4758;SDS011;2393;50.560;12.636;2023-07-02T13:37:43;1.63;;;1.17;;
4758;SDS011;2393;50.560;12.636;2023-07-02T13:40:12;1.60;;;1.50;;
4758;SDS011;2393;50.560;12.636;2023-07-02T13:42:41;3.53;;;2.13;;
4758;SDS011;2393;50.560;12.636;2023-07-02T13:45:10;3.83;;;1.90;;
4758;SDS011;2393;50.560;12.636;2023-07-02T13:47:38;2.50;;;1.43;;
4758;SDS011;2393;50.560;12.636;2023-07-02T13:50:07;3.20;;;2.17;;
4758;SDS011;2393;50.560;12.636;2023-07-02T13:52:35;1.60;;;1.50;;
4758;SDS011;2393;50.560;12.636;2023-07-02T13:55:04;3.23;;;2.20;;
4758;SDS011;2393;50.560;12.636;2023-07-02T13:57:35;9.97;;;2.37;;
4758;SDS011;2393;50.560;12.636;2023-07-02T14:00:05;2.10;;;1.77;;
4758;SDS011;2393;50.560;12.636;2023-07-02T14:02:34;1.73;;;1.63;;
4758;SDS011;2393;50.560;12.636;2023-07-02T14:05:02;6.30;;;1.60;;
4758;SDS011;2393;50.560;12.636;2023-07-02T14:07:31;8.30;;;1.50;;
4758;SDS011;2393;50.560;12.636;2023-07-02T14:09:59;2.33;;;2.13;;
4758;SDS011;2393;50.560;12.636;2023-07-02T14:12:27;1.47;;;1.17;;
4758;SDS011;2393;50.560;12.636;2023-07-02T14:14:55;2.70;;;1.90;;
4758;SDS011;2393;50.560;12.636;2023-07-02T14:17:24;2.50;;;2.30;;
4758;SDS011;2393;50.560;12.636;2023-07-02T14:19:52;2.03;;;1.93;;
4758;SDS011;2393;50.560;12.636;2023-07-02T14:22:20;2.70;;;2.10;;
4758;SDS011;2393;50.560;12.636;2023-07-02T14:24:48;3.20;;;2.43;;
4758;SDS011;2393;50.560;12.636;2023-07-02T14:27:16;3.10;;;2.63;;
4758;SDS011;2393;50.560;12.636;2023-07-02T14:29:44;4.00;;;2.20;;
4758;SDS011;2393;50.560;12.636;2023-07-02T14:32:13;4.53;;;2.67;;
4758;SDS011;2393;50.560;12.636;2023-07-02T14:34:43;4.93;;;2.43;;
4758;SDS011;2393;50.560;12.636;2023-07-02T14:37:11;9.20;;;2.87;;
4758;SDS011;2393;50.560;12.636;2023-07-02T14:39:39;4.40;;;2.10;;
4758;SDS011;2393;50.560;12.636;2023-07-02T14:42:16;3.63;;;2.40;;
4758;SDS011;2393;50.560;12.636;2023-07-02T14:44:46;4.53;;;2.47;;
4758;SDS011;2393;50.560;12.636;2023-07-02T14:47:14;3.40;;;2.53;;
4758;SDS011;2393;50.560;12.636;2023-07-02T14:49:43;5.27;;;2.67;;
4758;SDS011;2393;50.560;12.636;2023-07-02T14:52:11;3.47;;;2.57;;
4758;SDS011;2393;50.560;12.636;2023-07-02T14:54:43;8.17;;;3.13;;
4758;SDS011;2393;50.560;12.636;2023-07-02T14:57:11;5.93;;;2.50;;
4758;SDS011;2393;50.560;12.636;2023-07-02T14:59:43;4.70;;;3.33;;
4758;SDS011;2393;50.560;12.636;2023-07-02T15:02:16;3.27;;;2.70;;
4758;SDS011;2393;50.560;12.636;2023-07-02T15:04:46;6.70;;;2.70;;
4758;SDS011;2393;50.560;12.636;2023-07-02T15:07:15;6.13;;;3.23;;
4758;SDS011;2393;50.560;12.636;2023-07-02T15:09:43;6.10;;;2.67;;
4758;SDS011;2393;50.560;12.636;2023-07-02T15:12:11;5.97;;;3.30;;
4758;SDS011;2393;50.560;12.636;2023-07-02T15:14:39;5.13;;;3.07;;
4758;SDS011;2393;50.560;12.636;2023-07-02T15:17:07;3.00;;;2.47;;
4758;SDS011;2393;50.560;12.636;2023-07-02T15:19:35;11.73;;;2.77;;
4758;SDS011;2393;50.560;12.636;2023-07-02T15:22:05;6.30;;;3.17;;
4758;SDS011;2393;50.560;12.636;2023-07-02T15:24:33;5.33;;;3.17;;
4758;SDS011;2393;50.560;12.636;2023-07-02T15:27:02;5.70;;;2.97;;
4758;SDS011;2393;50.560;12.636;2023-07-02T15:29:31;4.63;;;3.23;;
4758;SDS011;2393;50.560;12.636;2023-07-02T15:31:59;3.87;;;3.13;;
4758;SDS011;2393;50.560;12.636;2023-07-02T15:34:27;11.20;;;3.10;;
4758;SDS011;2393;50.560;12.636;2023-07-02T15:36:55;6.00;;;3.60;;
4758;SDS011;2393;50.560;12.636;2023-07-02T15:39:24;5.70;;;3.90;;
4758;SDS011;2393;50.560;12.636;2023-07-02T15:41:58;9.10;;;3.80;;
4758;SDS011;2393;50.560;12.636;2023-07-02T15:44:27;8.97;;;3.60;;
4758;SDS011;2393;50.560;12.636;2023-07-02T15:46:55;4.80;;;3.30;;
4758;SDS011;2393;50.560;12.636;2023-07-02T15:49:24;7.50;;;3.87;;
4758;SDS011;2393;50.560;12.636;2023-07-02T15:51:52;12.77;;;3.87;;
4758;SDS011;2393;50.560;12.636;2023-07-02T15:54:21;5.63;;;2.83;;